M I D A S
Marine Information and Data Acquisition System
Tripno 901 of the Zeeleeuw from 2005-05-17 07:33:26 to 2005-05-17 10:59:46
Back to CruiseResearch ActivitiesStationsMapUnderway DataData graphs

EquipmentUnitsComments
TimeDGPSUTC
LatitudeDGPSDM.mWGS84
LongitudeDGPSDM.mWGS84
SpeedMeteo Stationm/sRelative wind speed
DirectionMeteo StationdegRelative wind direction
TemperatureMeteo Stationdeg CelciusAir temperature
PressureMeteo StationPaAtmospheric pressure
HumidityMeteo Station%Relative humidity
Missing or incorrect values are displayed as -999
Metereological data collected by the RV Zeeleeuw from 2005-05-17 07:28:40 to 2005-05-17 11:10:10
Time Latitude Longitude Speed Direction Temperature Pressure Humidity
2005-05-17 07:29 51°13.614 2°56.042 2.8 260 9.5 101780 52
2005-05-17 07:30 51°13.647 2°55.938 6.4 245 9.4 101780 51
2005-05-17 07:31 51°13.687 2°55.836 3.6 206 9.1 101770 51
2005-05-17 07:32 51°13.741 2°55.74 5 214 9 101780 51
2005-05-17 07:33 51°13.809 2°55.666 7.1 232 8.9 101780 52
2005-05-17 07:34 51°13.881 2°55.642 4.7 194 8.8 101780 54
2005-05-17 07:35 51°13.932 2°55.664 7 149 8.8 101780 55
2005-05-17 07:36 51°13.95 2°55.579 7.8 29 8.8 101770 57
2005-05-17 07:37 51°14.051 2°55.463 10.7 31 8.7 101760 55
2005-05-17 07:38 51°14.19 2°55.358 8.7 18 8.6 101760 56
2005-05-17 07:39 51°14.317 2°55.172 8.7 43 8.4 101760 55
2005-05-17 07:40 51°14.409 2°54.902 8.4 69 8.4 101760 56
2005-05-17 07:41 51°14.447 2°54.587 7.5 59 8.4 101770 58
2005-05-17 07:42 51°14.405 2°54.277 6.4 79 8.4 101780 60
2005-05-17 07:43 51°14.324 2°53.971 4.1 72 8.4 101780 61
2005-05-17 07:44 51°14.226 2°53.665 5.9 82 8.5 101780 60
2005-05-17 07:45 51°14.124 2°53.372 5.7 79 8.4 101780 57
2005-05-17 07:46 51°14.021 2°53.073 3.7 64 8.3 101780 53
2005-05-17 07:47 51°13.901 2°52.787 2.7 77 8.3 101790 55
2005-05-17 07:48 51°13.778 2°52.51 5.2 87 8.3 101790 58
2005-05-17 07:49 51°13.665 2°52.223 3.8 77 8.3 101790 59
2005-05-17 07:50 51°13.56 2°51.924 4 77 8.4 101790 60
2005-05-17 07:51 51°13.453 2°51.633 4.8 66 8.4 101780 56
2005-05-17 07:52 51°13.347 2°51.344 5.2 64 8.4 101780 54
2005-05-17 07:53 51°13.237 2°51.047 4 59 8.3 101790 53
2005-05-17 07:54 51°13.129 2°50.761 4.4 57 8.3 101790 57
2005-05-17 07:55 51°13.019 2°50.462 3.1 56 8.3 101790 54
2005-05-17 07:56 51°12.91 2°50.175 3.8 57 8.3 101790 57
2005-05-17 07:57 51°12.802 2°49.885 3.8 65 8.3 101790 56
2005-05-17 07:58 51°12.69 2°49.597 4.1 65 8.3 101790 54
2005-05-17 07:59 51°12.579 2°49.304 2.7 64 8.3 101800 57
2005-05-17 08:00 51°12.468 2°49.008 4.8 99 8.4 101790 58
2005-05-17 08:01 51°12.359 2°48.715 3.4 78 8.4 101800 55
2005-05-17 08:02 51°12.247 2°48.406 4 83 8.3 101800 56
2005-05-17 08:03 51°12.137 2°48.108 5 96 8.4 101790 58
2005-05-17 08:04 51°12.023 2°47.812 2.3 77 8.4 101790 59
2005-05-17 08:05 51°11.913 2°47.517 3.1 76 8.5 101790 56
2005-05-17 08:06 51°11.8 2°47.217 5.5 80 8.5 101790 57
2005-05-17 08:07 51°11.692 2°46.922 4.4 83 8.5 101790 60
2005-05-17 08:08 51°11.578 2°46.618 6 73 8.5 101790 56
2005-05-17 08:09 51°11.469 2°46.322 4.9 68 8.4 101800 54
2005-05-17 08:10 51°11.36 2°46.019 4.4 77 8.4 101790 57
2005-05-17 08:11 51°11.248 2°45.72 3.4 71 8.4 101800 54
2005-05-17 08:12 51°11.141 2°45.419 5.2 79 8.4 101790 57
2005-05-17 08:13 51°11.044 2°45.117 3.3 52 8.4 101790 53
2005-05-17 08:14 51°10.96 2°44.798 5 72 8.4 101790 58
2005-05-17 08:15 51°10.878 2°44.473 4.5 68 8.4 101790 56
2005-05-17 08:16 51°10.799 2°44.144 4.2 64 8.4 101800 54
2005-05-17 08:17 51°10.718 2°43.816 6.8 79 8.4 101790 58
2005-05-17 08:18 51°10.636 2°43.493 5.9 84 8.4 101790 55
2005-05-17 08:19 51°10.558 2°43.166 6.3 81 8.4 101800 55
2005-05-17 08:20 51°10.478 2°42.845 4.6 82 8.4 101790 54
2005-05-17 08:21 51°10.397 2°42.523 5 59 8.4 101800 56
2005-05-17 08:22 51°10.316 2°42.197 5.8 76 8.4 101800 55
2005-05-17 08:23 51°10.238 2°41.873 3.5 77 8.4 101800 52
2005-05-17 08:24 51°10.156 2°41.546 5.8 87 8.4 101800 54
2005-05-17 08:25 51°10.079 2°41.211 6.3 86 8.5 101810 57
2005-05-17 08:26 51°10.002 2°40.888 5.1 80 8.4 101800 52
2005-05-17 08:27 51°9.925 2°40.561 5.4 74 8.5 101800 55
2005-05-17 08:28 51°9.855 2°40.231 5.8 68 8.5 101800 57
2005-05-17 08:29 51°9.779 2°39.903 3.2 70 8.4 101810 52
2005-05-17 08:30 51°9.706 2°39.574 3.4 61 8.4 101820 52
2005-05-17 08:31 51°9.634 2°39.25 1.6 77 8.4 101810 54
2005-05-17 08:32 51°9.559 2°38.924 4 77 8.5 101810 55
2005-05-17 08:33 51°9.485 2°38.593 5.1 74 8.5 101820 59
2005-05-17 08:34 51°9.41 2°38.265 5.4 84 8.5 101810 57
2005-05-17 08:35 51°9.337 2°37.934 5.5 81 8.5 101810 56
2005-05-17 08:36 51°9.263 2°37.601 4 76 8.5 101820 57
2005-05-17 08:37 51°9.197 2°37.303 5.8 63 8.5 101810 56
2005-05-17 08:38 51°9.155 2°37.096 5.2 78 8.5 101820 56
2005-05-17 08:39 51°9.164 2°37.026 4.2 79 8.5 101820 56
2005-05-17 08:40 51°9.159 2°37.026 7 92 8.6 101820 58
2005-05-17 08:41 51°9.153 2°37.024 6.5 101 8.7 101820 55
2005-05-17 08:42 51°9.146 2°37.022 6.4 117 8.7 101810 53
2005-05-17 08:43 51°9.139 2°37.017 5.9 137 8.7 101830 55
2005-05-17 08:44 51°9.133 2°37.011 5.9 122 8.7 101830 53
2005-05-17 08:45 51°9.129 2°37.004 6.3 116 8.7 101830 55
2005-05-17 08:46 51°9.123 2°36.996 6.4 106 8.7 101830 54
2005-05-17 08:47 51°9.118 2°36.988 6 99 8.6 101830 53
2005-05-17 08:48 51°9.114 2°36.981 3.8 115 8.6 101820 55
2005-05-17 08:49 51°9.114 2°36.962 6.4 99 8.6 101830 52
2005-05-17 08:50 51°9.138 2°36.916 6.4 50 8.6 101820 56
2005-05-17 08:51 51°9.178 2°36.91 7.4 4 8.6 101830 55
2005-05-17 08:52 51°9.222 2°36.957 9 351 8.6 101830 57
2005-05-17 08:53 51°9.273 2°37.041 9.3 351 8.7 101820 56
2005-05-17 08:54 51°9.31 2°37.128 7 343 8.7 101830 54
2005-05-17 08:55 51°9.333 2°37.195 7.9 352 8.9 101830 57
2005-05-17 08:56 51°9.347 2°37.246 8.1 353 8.8 101830 59
2005-05-17 08:57 51°9.363 2°37.305 6.9 343 8.8 101830 59
2005-05-17 08:58 51°9.38 2°37.371 7.6 338 8.8 101820 57
2005-05-17 08:59 51°9.396 2°37.442 7.9 320 8.8 101820 57
2005-05-17 09:00 51°9.415 2°37.512 6.9 335 8.8 101830 55
2005-05-17 09:01 51°9.436 2°37.579 7.8 346 8.8 101830 58
2005-05-17 09:02 51°9.456 2°37.643 8.3 336 8.8 101830 59
2005-05-17 09:03 51°9.48 2°37.706 8.3 344 8.9 101830 58
2005-05-17 09:04 51°9.503 2°37.769 8 345 9 101830 59
2005-05-17 09:05 51°9.525 2°37.834 7.8 338 8.9 101830 56
2005-05-17 09:06 51°9.544 2°37.9 7.7 337 8.9 101840 56
2005-05-17 09:07 51°9.564 2°37.961 8.8 345 8.9 101840 58
2005-05-17 09:08 51°9.583 2°38.021 7.5 348 8.9 101840 55
2005-05-17 09:09 51°9.602 2°38.078 8.1 346 8.9 101840 55
2005-05-17 09:10 51°9.62 2°38.133 7.3 340 8.9 101840 55
2005-05-17 09:11 51°9.639 2°38.19 7.5 339 8.8 101840 54
2005-05-17 09:12 51°9.658 2°38.249 7.5 337 8.8 101840 53
2005-05-17 09:13 51°9.678 2°38.309 6.8 349 8.8 101850 54
2005-05-17 09:14 51°9.699 2°38.369 6.9 339 8.9 101850 56
2005-05-17 09:15 51°9.72 2°38.433 7.8 333 8.9 101850 53
2005-05-17 09:16 51°9.741 2°38.493 7.1 345 8.9 101850 54
2005-05-17 09:17 51°9.76 2°38.555 6.6 345 9 101840 51
2005-05-17 09:18 51°9.779 2°38.617 7 325 8.9 101840 54
2005-05-17 09:19 51°9.797 2°38.677 9.1 320 8.9 101840 63
2005-05-17 09:20 51°9.815 2°38.736 10.7 320 8.8 101840 64
2005-05-17 09:21 51°9.833 2°38.794 10.2 320 8.6 101830 63
2005-05-17 09:22 51°9.85 2°38.852 10.4 319 8.5 101830 65
2005-05-17 09:23 51°9.866 2°38.911 8.3 313 8.4 101840 63
2005-05-17 09:24 51°9.883 2°38.985 9.3 306 8.3 101840 65
2005-05-17 09:25 51°9.901 2°39.082 7.4 300 8.3 101840 65
2005-05-17 09:26 51°9.921 2°39.188 10.2 43 8.2 101850 67
2005-05-17 09:27 51°9.937 2°39.255 8.7 42 8.2 101850 64
2005-05-17 09:28 51°9.946 2°39.298 9.2 329 8.2 101850 62
2005-05-17 09:29 51°9.949 2°39.321 7.9 358 8.2 101850 57
2005-05-17 09:30 51°9.962 2°39.359 6.7 17 8.2 101850 58
2005-05-17 09:31 51°10.056 2°39.501 9.5 354 8.2 101850 59
2005-05-17 09:32 51°10.216 2°39.613 10.7 352 8.2 101850 56
2005-05-17 09:33 51°10.375 2°39.838 11.3 347 8.2 101860 54
2005-05-17 09:34 51°10.521 2°40.095 12.9 352 8.3 101850 59
2005-05-17 09:35 51°10.664 2°40.358 13.5 344 8.4 101850 59
2005-05-17 09:36 51°10.814 2°40.615 12.7 342 8.4 101830 60
2005-05-17 09:37 51°10.959 2°40.862 14 344 8.5 101840 62
2005-05-17 09:38 51°11.111 2°41.121 13.2 347 8.5 101850 61
2005-05-17 09:39 51°11.257 2°41.367 13.9 346 8.5 101840 61
2005-05-17 09:40 51°11.404 2°41.614 12.8 341 8.5 101840 61
2005-05-17 09:41 51°11.539 2°41.882 12.7 346 8.5 101850 60
2005-05-17 09:42 51°11.668 2°42.163 12.9 345 8.5 101840 59
2005-05-17 09:43 51°11.796 2°42.441 14 344 8.6 101830 60
2005-05-17 09:44 51°11.918 2°42.727 12.6 342 8.6 101840 59
2005-05-17 09:45 51°12.03 2°43.024 12.6 345 8.6 101830 58
2005-05-17 09:46 51°12.134 2°43.331 12.9 334 8.6 101850 59
2005-05-17 09:47 51°12.215 2°43.653 12.5 344 8.6 101850 56
2005-05-17 09:48 51°12.296 2°43.971 12.3 341 8.6 101840 56
2005-05-17 09:49 51°12.378 2°44.293 12.7 338 8.6 101850 57
2005-05-17 09:50 51°12.456 2°44.61 11.8 329 8.6 101840 56
2005-05-17 09:51 51°12.523 2°44.938 12.5 336 8.6 101840 55
2005-05-17 09:52 51°12.603 2°45.255 13.3 333 8.6 101840 55
2005-05-17 09:53 51°12.684 2°45.567 13 331 8.6 101850 56
2005-05-17 09:54 51°12.779 2°45.879 11.9 329 8.7 101850 57
2005-05-17 09:55 51°12.877 2°46.194 12.8 329 8.6 101830 58
2005-05-17 09:56 51°12.971 2°46.502 13.5 330 8.6 101840 61
2005-05-17 09:57 51°13.07 2°46.804 12.5 337 8.6 101830 60
2005-05-17 09:58 51°13.165 2°47.107 14.8 327 8.6 101850 58
2005-05-17 09:59 51°13.261 2°47.421 12.4 333 8.5 101830 58
2005-05-17 10:00 51°13.355 2°47.731 11.9 337 8.5 101840 57
2005-05-17 10:01 51°13.451 2°48.042 12.5 335 8.5 101830 59
2005-05-17 10:02 51°13.553 2°48.251 11.4 346 8.6 101830 60
2005-05-17 10:03 51°13.618 2°48.297 9 21 8.6 101850 61
2005-05-17 10:04 51°13.662 2°48.307 11.2 11 8.7 101860 63
2005-05-17 10:05 51°13.698 2°48.327 9.6 359 8.6 101860 67
2005-05-17 10:06 51°13.725 2°48.371 9.9 322 8.5 101860 68
2005-05-17 10:07 51°13.741 2°48.435 11.7 317 8.4 101850 69
2005-05-17 10:08 51°13.755 2°48.489 8.6 323 8.4 101850 68
2005-05-17 10:09 51°13.774 2°48.547 9.2 335 8.4 101860 68
2005-05-17 10:10 51°13.791 2°48.605 7.8 333 8.4 101860 69
2005-05-17 10:11 51°13.804 2°48.658 10.5 317 8.4 101850 66
2005-05-17 10:12 51°13.816 2°48.715 10.3 42 8.3 101860 66
2005-05-17 10:13 51°13.829 2°48.773 9.2 227 8.3 101860 64
2005-05-17 10:14 51°13.845 2°48.835 9.2 316 8.3 101850 63
2005-05-17 10:15 51°13.859 2°48.895 7.6 227 8.4 101860 63
2005-05-17 10:16 51°13.874 2°48.956 9.1 332 8.4 101860 67
2005-05-17 10:17 51°13.887 2°49.019 9.6 323 8.5 101860 65
2005-05-17 10:18 51°13.901 2°49.079 8.9 329 8.4 101850 64
2005-05-17 10:19 51°13.917 2°49.141 7.4 318 8.3 101860 64
2005-05-17 10:20 51°13.933 2°49.198 8 319 8.4 101870 64
2005-05-17 10:21 51°13.95 2°49.26 9.3 324 8.5 101860 67
2005-05-17 10:22 51°13.969 2°49.32 8.2 323 8.4 101860 62
2005-05-17 10:23 51°13.987 2°49.384 7.7 323 8.4 101860 64
2005-05-17 10:24 51°14.004 2°49.447 9.3 318 8.5 101870 64
2005-05-17 10:25 51°14.019 2°49.507 9.4 318 8.5 101870 63
2005-05-17 10:26 51°14.037 2°49.57 8.1 323 8.5 101870 61
2005-05-17 10:27 51°14.055 2°49.629 6.3 318 8.5 101870 61
2005-05-17 10:28 51°14.075 2°49.693 8.2 325 8.5 101870 61
2005-05-17 10:29 51°14.091 2°49.754 7.6 323 8.5 101870 58
2005-05-17 10:30 51°14.11 2°49.816 7.9 328 8.5 101870 58
2005-05-17 10:31 51°14.129 2°49.877 8.6 334 8.5 101870 59
2005-05-17 10:32 51°14.147 2°49.941 7.8 327 8.5 101880 60
2005-05-17 10:33 51°14.165 2°49.999 7.3 320 8.5 101870 59
2005-05-17 10:34 51°14.184 2°50.059 6.9 327 8.5 101880 60
2005-05-17 10:35 51°14.203 2°50.121 8.3 320 8.5 101880 61
2005-05-17 10:36 51°14.219 2°50.183 8.6 325 8.5 101870 57
2005-05-17 10:37 51°14.237 2°50.243 6.7 320 8.6 101880 58
2005-05-17 10:38 51°14.253 2°50.312 6.6 228 8.6 101870 60
2005-05-17 10:39 51°14.261 2°50.399 7.5 42 8.7 101880 60
2005-05-17 10:40 51°14.261 2°50.469 7.7 307 8.7 101880 57
2005-05-17 10:41 51°14.258 2°50.514 6.1 309 8.7 101880 57
2005-05-17 10:42 51°14.253 2°50.541 4.1 319 8.7 101900 58
2005-05-17 10:43 51°14.247 2°50.557 5.9 312 8.7 101880 57
2005-05-17 10:44 51°14.24 2°50.57 5.9 303 8.8 101900 57
2005-05-17 10:45 51°14.266 2°50.736 9.4 334 8.8 101880 56
2005-05-17 10:46 51°14.32 2°51.042 10.7 337 8.7 101880 56
2005-05-17 10:47 51°14.377 2°51.364 11.1 340 8.7 101880 57
2005-05-17 10:48 51°14.436 2°51.691 10.1 340 8.7 101880 55
2005-05-17 10:49 51°14.489 2°52.019 10.3 333 8.7 101880 58
2005-05-17 10:50 51°14.536 2°52.342 12.1 334 8.6 101880 55
2005-05-17 10:51 51°14.578 2°52.684 10.5 329 8.7 101870 57
2005-05-17 10:52 51°14.59 2°53.015 10.9 329 8.6 101870 58
2005-05-17 10:53 51°14.571 2°53.362 10.1 327 8.6 101870 58
2005-05-17 10:54 51°14.532 2°53.698 9.7 327 8.6 101880 58
2005-05-17 10:55 51°14.5 2°54.035 9.1 324 8.5 101880 59
2005-05-17 10:56 51°14.467 2°54.362 10.4 326 8.5 101870 55
2005-05-17 10:57 51°14.43 2°54.699 11.5 325 8.6 101870 60
2005-05-17 10:58 51°14.375 2°54.989 8.3 228 8.5 101870 57
2005-05-17 10:59 51°14.287 2°55.225 5.4 322 8.6 101890 59
2005-05-17 11:00 51°14.184 2°55.381 4.4 276 8.7 101890 59
2005-05-17 11:01 51°14.082 2°55.462 3.2 245 8.8 101890 59
2005-05-17 11:02 51°13.98 2°55.519 3.1 233 8.9 101900 56
2005-05-17 11:03 51°13.877 2°55.582 1.6 248 8.8 101890 55
2005-05-17 11:04 51°13.787 2°55.644 3.6 306 9 101890 58
2005-05-17 11:05 51°13.706 2°55.745 2.4 254 9.1 101890 56
2005-05-17 11:06 51°13.656 2°55.866 2.8 288 9.1 101890 55
2005-05-17 11:07 51°13.623 2°55.994 4.1 307 9.3 101900 55
2005-05-17 11:08 51°13.601 2°56.082 2.1 318 9.5 101900 54
2005-05-17 11:09 51°13.595 2°56.1 5.5 258 9.6 101890 53